VBS weather

Brescia Airport
Montichiari (BS), Lombardy, Italy

Public forecast

Using degrees Celsius for public forecast. Weather courtesy of forecast.io.

METAR (pilot weather report)

Retrieved 2019/04/21 17:50 UTC (19 minutes ago):

LIPO 211750Z 13008KT CAVOK 19/04 Q1017

TAF (pilot weather forecast)

Retrieved 2019/04/21 18:21 UTC (0 seconds ago):

TAF LIPO 211700Z 2118/2218 VRB05KT 9999 BKN060 BECMG 2216/2218 12015KT RA BKN012 BKN050